Time,TemperatureF,DewpointF,PressureIn,WindDirection,WindDirectionDegrees,WindSpeedMPH,WindSpeedGustMPH,Humidity,HourlyPrecipIn,Conditions,Clouds,dailyrainin,SoftwareType,DateUTC
2013-06-05 17:47:00,79.5,27.9,29.92,SW,232,5.4,6.3,15,0.00, ,SKC,-99.99,VWS V12.07,2013-06-05 14:47:00,
2013-06-05 17:48:00,79.5,27.9,29.92,South,181,4.0,8.1,15,0.00, ,SKC,-99.99,VWS V12.07,2013-06-05 14:48:00,
2013-06-05 17:51:00,79.3,27.7,29.92,West,269,3.6,9.6,15,0.00, ,SKC,-99.99,VWS V12.07,2013-06-05 14:51:00,
2013-06-05 17:52:00,79.2,27.6,29.92,WSW,258,5.8,9.6,15,0.00, ,SKC,-99.99,VWS V12.07,2013-06-05 14:52:00,
2013-06-05 17:57:00,78.8,27.3,29.92,SW,224,5.4,10.5,15,0.00, ,SKC,-99.99,VWS V12.07,2013-06-05 14:57:00,
2013-06-05 18:02:00,78.6,27.1,29.92,West,272,3.6,6.3,15,0.00, ,SKC,-99.99,VWS V12.07,2013-06-05 15:02:00,
2013-06-05 21:56:00,71.4,30.6,29.95,WSW,253,2.7,2.7,22,0.00, ,SKC,-99.99,VWS V12.07,2013-06-05 18:56:00,
2013-06-05 22:02:00,71.2,30.5,29.95,WSW,253,0.0,2.7,22,0.00, ,SKC,-99.99,VWS V12.07,2013-06-05 19:02:00,
2013-06-05 22:07:00,71.2,30.5,29.95,WSW,253,0.0,2.7,22,0.00, ,SKC,-99.99,VWS V12.07,2013-06-05 19:07:00,
2013-06-05 22:12:00,71.1,30.3,29.98,WSW,253,0.0,2.7,22,0.00, ,SKC,-99.99,VWS V12.07,2013-06-05 19:12:00,
2013-06-05 22:17:00,71.1,30.3,29.98,WSW,253,0.0,3.1,22,0.00, ,SKC,-99.99,VWS V12.07,2013-06-05 19:17:00,
2013-06-05 22:22:00,71.1,30.3,29.98,WSW,253,0.0,0.0,22,0.00, ,SKC,-99.99,VWS V12.07,2013-06-05 19:22:00,
2013-06-05 22:27:00,70.9,31.3,29.98,WSW,254,0.0,0.0,23,0.00, ,SKC,-99.99,VWS V12.07,2013-06-05 19:27:00,
2013-06-05 22:32:00,70.9,31.3,29.98,WSW,253,0.0,0.0,23,0.00, ,SKC,-99.99,VWS V12.07,2013-06-05 19:32:00,
2013-06-05 22:37:00,70.9,31.3,29.98,WSW,253,0.0,0.0,23,0.00, ,SKC,-99.99,VWS V12.07,2013-06-05 19:37:00,
2013-06-05 22:42:00,70.7,31.1,29.98,WSW,254,0.0,0.0,23,0.00, ,SKC,-99.99,VWS V12.07,2013-06-05 19:42:00,
2013-06-05 22:47:00,70.7,31.1,29.98,WSW,253,0.0,0.0,23,0.00, ,SKC,-99.99,VWS V12.07,2013-06-05 19:47:00,
2013-06-05 22:53:00,70.5,32.0,29.98,WSW,253,0.0,0.0,24,0.00, ,SKC,-99.99,VWS V12.07,2013-06-05 19:53:00,
2013-06-05 22:58:00,70.5,32.0,29.98,WSW,253,0.0,0.0,24,0.00, ,SKC,-99.99,VWS V12.07,2013-06-05 19:58:00,
2013-06-05 23:03:00,70.3,31.9,29.98,WSW,253,0.0,0.0,24,0.00, ,SKC,-99.99,VWS V12.07,2013-06-05 20:03:00,
2013-06-05 23:08:00,70.3,31.9,29.98,WSW,253,0.0,0.0,24,0.00, ,SKC,-99.99,VWS V12.07,2013-06-05 20:08:00,
2013-06-05 23:13:00,70.2,32.7,29.98,WSW,254,0.0,0.0,25,0.00, ,SKC,-99.99,VWS V12.07,2013-06-05 20:13:00,
2013-06-05 23:18:00,70.2,32.7,29.98,WSW,253,0.0,0.0,25,0.00, ,SKC,-99.99,VWS V12.07,2013-06-05 20:18:00,
2013-06-05 23:23:00,70.0,32.6,29.98,WSW,253,0.0,0.0,25,0.00, ,SKC,-99.99,VWS V12.07,2013-06-05 20:23:00,
2013-06-05 23:28:00,70.0,32.6,29.98,WSW,254,0.0,0.0,25,0.00, ,SKC,-99.99,VWS V12.07,2013-06-05 20:28:00,
2013-06-05 23:33:00,69.8,32.4,29.98,WSW,253,0.0,0.0,25,0.00, ,SKC,-99.99,VWS V12.07,2013-06-05 20:33:00,
2013-06-05 23:38:00,69.8,32.4,29.98,WSW,253,0.0,0.0,25,0.00, ,SKC,-99.99,VWS V12.07,2013-06-05 20:38:00,
2013-06-05 23:43:00,69.8,34.3,29.98,WSW,253,0.0,0.0,27,0.00, ,SKC,-99.99,VWS V12.07,2013-06-05 20:43:00,
2013-06-05 23:48:00,69.8,36.1,29.98,WSW,253,0.0,0.0,29,0.00, ,SKC,-99.99,VWS V12.07,2013-06-05 20:48:00,
2013-06-05 23:53:00,69.6,36.8,29.98,WSW,253,0.0,0.0,30,0.00, ,SKC,-99.99,VWS V12.07,2013-06-05 20:53:00,
2013-06-05 23:58:00,69.4,36.7,29.98,WSW,253,0.0,0.0,30,0.00, ,SKC,-99.99,VWS V12.07,2013-06-05 20:58:00,